Point, Texas
Current Conditions -  °F | °C
As of 3:35 PM on Friday 19 Dec 2014 (Local Time) from KGVT Reporting Station
Overcast Overcast  
Wind Chill:   Ceiling: 700
Heat Index:   Visibility: 7mi
Dew Point:   Wind: 6mph
Humidity: 87%   Direction: 30°NNE
Pressure: 30.15"   Gusts: NA
Location:  32.93°N, 95.87°W
Report Text: KGVT 192135Z AUTO 03005KT 7SM OVC007 09/07 A3015 RMK AO2
Loading
Personal Weather Stations






























Interactive Weather Map New forecast layout! Learn more

10-Day Weather Forecast

Advertisements
Track Severe Weather on mobile